Time;durP1;ratioP1;P1;durP2;ratioP2;P2;SDS_P1;SDS_P2;PMS_P1;PMS_P2;Temp;Humidity;BMP_temperature;BMP_pressure;BME280_temperature;BME280_humidity;BME280_pressure;Samples;Min_cycle;Max_cycle;Signal;HPM_P1;HPM_P2
2023/05/10 00:00:39;;;;;;;1.70;1.60;;;15.70;37.30;;;;;;5053655;28;20490;-71
2023/05/10 00:03:05;;;;;;;1.60;1.50;;;15.70;37.30;;;;;;5055171;28;20051;-71
2023/05/10 00:05:31;;;;;;;1.48;1.38;;;15.70;37.40;;;;;;5053840;28;20430;-71
2023/05/10 00:07:57;;;;;;;1.80;1.70;;;15.70;37.40;;;;;;5053545;28;20025;-72
2023/05/10 00:10:23;;;;;;;1.55;1.45;;;15.70;37.40;;;;;;5054889;28;20029;-72
2023/05/10 00:12:48;;;;;;;3.00;1.58;;;15.60;37.40;;;;;;5053450;28;20060;-71
2023/05/10 00:15:14;;;;;;;1.75;1.50;;;15.70;37.50;;;;;;5054005;28;20460;-72
2023/05/10 00:17:40;;;;;;;2.17;1.73;;;15.70;37.50;;;;;;5054629;28;20033;-72
2023/05/10 00:20:06;;;;;;;2.25;1.60;;;15.70;37.60;;;;;;5054606;28;20060;-71
2023/05/10 00:22:32;;;;;;;1.48;1.38;;;15.60;37.50;;;;;;5054427;28;20071;-72
2023/05/10 00:24:58;;;;;;;1.65;1.30;;;15.60;37.60;;;;;;5054527;28;20054;-72
2023/05/10 00:27:24;;;;;;;1.70;1.60;;;15.60;37.70;;;;;;5052859;28;20101;-73
2023/05/10 00:29:49;;;;;;;1.50;1.40;;;15.60;37.70;;;;;;5054207;28;20045;-72
2023/05/10 00:32:15;;;;;;;1.65;1.50;;;15.60;37.80;;;;;;5054098;28;20025;-72
2023/05/10 00:34:41;;;;;;;1.20;1.20;;;15.60;37.80;;;;;;5054303;28;20099;-71
2023/05/10 00:37:07;;;;;;;1.88;1.77;;;15.60;37.90;;;;;;5054261;28;20075;-72
2023/05/10 00:39:32;;;;;;;1.15;1.15;;;15.60;37.90;;;;;;5053918;28;20028;-72
2023/05/10 00:41:58;;;;;;;1.42;1.33;;;15.60;38.00;;;;;;5054166;28;20520;-71
2023/05/10 00:44:23;;;;;;;1.70;1.60;;;15.60;38.00;;;;;;5053739;28;20075;-72
2023/05/10 00:46:49;;;;;;;1.48;1.38;;;15.70;38.00;;;;;;5054192;28;20083;-72
2023/05/10 00:49:16;;;;;;;1.75;1.65;;;15.60;38.00;;;;;;5053831;28;20035;-71
2023/05/10 00:51:42;;;;;;;1.70;1.60;;;15.60;38.10;;;;;;5052486;28;20115;-72
2023/05/10 00:54:11;;;;;;;1.60;1.50;;;15.70;38.10;;;;;;5054031;28;20485;-72
2023/05/10 00:56:37;;;;;;;1.73;1.63;;;15.70;38.10;;;;;;5054067;28;20053;-72
2023/05/10 00:59:03;;;;;;;1.45;1.35;;;15.60;38.10;;;;;;5052299;28;20025;-71
2023/05/10 01:01:29;;;;;;;1.50;1.40;;;15.70;38.10;;;;;;5052694;28;20387;-71
2023/05/10 01:03:56;;;;;;;2.65;1.50;;;15.60;38.10;;;;;;5053679;28;20086;-71
2023/05/10 01:06:22;;;;;;;1.67;1.58;;;15.60;38.10;;;;;;5052446;28;20051;-71
2023/05/10 01:08:48;;;;;;;1.60;1.50;;;15.60;38.10;;;;;;5052403;28;20021;-72
2023/05/10 01:11:14;;;;;;;2.65;1.70;;;15.60;38.20;;;;;;5052005;28;20025;-70
2023/05/10 01:13:42;;;;;;;1.52;1.40;;;15.60;38.30;;;;;;5053342;28;20029;-72
2023/05/10 01:16:07;;;;;;;1.88;1.42;;;15.50;38.30;;;;;;5053622;28;20025;-71
2023/05/10 01:18:37;;;;;;;1.50;1.40;;;15.60;38.40;;;;;;5052540;28;20029;-71
2023/05/10 01:21:33;;;;;;;1.65;1.55;;;15.50;38.40;;;;;;5053387;28;20471;-71
2023/05/10 01:24:22;;;;;;;1.80;1.70;;;15.50;38.70;;;;;;5053456;28;20037;-71
2023/05/10 01:27:06;;;;;;;1.80;1.70;;;15.50;38.60;;;;;;5053540;28;20025;-71
2023/05/10 01:30:05;;;;;;;1.83;1.60;;;15.50;38.80;;;;;;5053363;28;20056;-71
2023/05/10 01:32:53;;;;;;;2.53;1.45;;;15.50;38.80;;;;;;5053337;28;20032;-71
2023/05/10 01:35:38;;;;;;;1.52;1.42;;;15.40;38.80;;;;;;5053512;28;20043;-71
2023/05/10 01:38:39;;;;;;;1.55;1.45;;;15.40;38.70;;;;;;5052430;28;20060;-71
2023/05/10 01:41:18;;;;;;;1.60;1.50;;;15.40;38.80;;;;;;5053337;28;20029;-71
2023/05/10 01:44:03;;;;;;;1.60;1.50;;;15.50;38.80;;;;;;5052790;28;20029;-71
2023/05/10 01:46:38;;;;;;;1.23;1.23;;;15.40;38.80;;;;;;5053035;28;20036;-71
2023/05/10 01:49:09;;;;;;;1.55;1.45;;;15.40;38.80;;;;;;5053109;28;20464;-71
2023/05/10 01:51:51;;;;;;;1.77;1.67;;;15.40;38.80;;;;;;5051959;28;20025;-71
2023/05/10 01:54:19;;;;;;;1.77;1.67;;;15.40;38.80;;;;;;5053171;28;20029;-70
2023/05/10 01:56:50;;;;;;;2.90;1.50;;;15.40;38.80;;;;;;5053213;28;20029;-71
2023/05/10 01:59:19;;;;;;;1.65;1.55;;;15.40;38.80;;;;;;5053122;28;20546;-71
2023/05/10 02:01:47;;;;;;;1.52;1.40;;;15.40;38.90;;;;;;5051581;28;20519;-71
2023/05/10 02:04:16;;;;;;;1.60;1.50;;;15.40;38.90;;;;;;5052056;28;20040;-71
2023/05/10 02:06:43;;;;;;;1.55;1.45;;;15.40;39.00;;;;;;5051695;28;20025;-71
2023/05/10 02:09:11;;;;;;;1.60;1.50;;;15.40;39.00;;;;;;5053035;28;20024;-71
2023/05/10 02:11:39;;;;;;;1.60;1.50;;;15.40;39.00;;;;;;5052913;28;20114;-71
2023/05/10 02:14:09;;;;;;;1.65;1.55;;;15.30;39.00;;;;;;5052731;28;20032;-71
2023/05/10 02:16:35;;;;;;;1.50;1.40;;;15.40;39.10;;;;;;5052846;28;20116;-71
2023/05/10 02:19:02;;;;;;;1.55;1.45;;;15.40;39.00;;;;;;5053008;28;20111;-71
2023/05/10 02:21:29;;;;;;;2.00;1.80;;;15.40;39.10;;;;;;5053188;28;20025;-71
2023/05/10 02:23:56;;;;;;;3.05;1.58;;;15.40;39.00;;;;;;5054659;28;20025;-71
2023/05/10 02:26:25;;;;;;;1.70;1.60;;;15.40;39.00;;;;;;5056455;28;20048;-71
2023/05/10 02:28:51;;;;;;;1.83;1.70;;;15.40;39.00;;;;;;5055193;28;20178;-71
2023/05/10 02:31:18;;;;;;;1.73;1.63;;;15.40;39.00;;;;;;5036800;28;20037;-71
2023/05/10 02:33:45;;;;;;;1.50;1.40;;;15.40;39.10;;;;;;5036420;28;20030;-71
2023/05/10 02:36:13;;;;;;;1.88;1.55;;;15.40;39.10;;;;;;5035358;28;20379;-71
2023/05/10 02:38:39;;;;;;;2.00;1.45;;;15.40;39.20;;;;;;5035190;28;20065;-71
2023/05/10 02:41:07;;;;;;;1.80;1.70;;;15.40;39.20;;;;;;5036303;28;20104;-71
2023/05/10 02:43:33;;;;;;;1.70;1.60;;;15.50;39.30;;;;;;5036260;28;20057;-71
2023/05/10 02:45:59;;;;;;;1.80;1.70;;;15.50;39.60;;;;;;5036482;28;20479;-71
2023/05/10 02:48:25;;;;;;;1.92;1.80;;;15.40;40.30;;;;;;5035014;28;20030;-72
2023/05/10 02:50:54;;;;;;;2.55;1.90;;;15.50;40.00;;;;;;5036545;28;20021;-71
2023/05/10 02:53:24;;;;;;;2.00;1.90;;;15.50;40.10;;;;;;5036028;28;20018;-71
2023/05/10 02:55:54;;;;;;;1.98;1.88;;;15.40;40.20;;;;;;5035716;28;20329;-71
2023/05/10 02:58:21;;;;;;;2.70;1.90;;;15.40;40.30;;;;;;5034989;28;20029;-71
2023/05/10 03:00:47;;;;;;;2.70;2.17;;;15.40;40.40;;;;;;5034613;28;20030;-71
2023/05/10 03:03:12;;;;;;;1.85;1.70;;;15.40;40.50;;;;;;5036518;28;20112;-71
2023/05/10 03:05:38;;;;;;;2.35;2.13;;;15.40;40.60;;;;;;5035854;28;20029;-71
2023/05/10 03:08:04;;;;;;;2.28;2.08;;;15.40;40.70;;;;;;5034712;28;20076;-71
2023/05/10 03:10:32;;;;;;;2.33;2.13;;;15.30;40.80;;;;;;5035668;28;20075;-71
2023/05/10 03:13:39;;;;;;;3.15;2.00;;;15.40;41.00;;;;;;5034980;28;20037;-71
2023/05/10 03:16:09;;;;;;;2.20;2.00;;;15.40;41.20;;;;;;5035029;28;20104;-70
2023/05/10 03:19:01;;;;;;;3.42;2.28;;;15.30;41.00;;;;;;5035280;28;20031;-71
2023/05/10 03:21:29;;;;;;;3.00;1.90;;;15.30;41.10;;;;;;5025020;28;20072;-71
2023/05/10 03:24:11;;;;;;;2.33;2.13;;;15.30;41.00;;;;;;5015945;28;20387;-71
2023/05/10 03:26:38;;;;;;;2.53;2.13;;;15.30;41.10;;;;;;5014630;28;20384;-71
2023/05/10 03:29:06;;;;;;;2.65;2.30;;;15.30;41.00;;;;;;5017497;28;20037;-71
2023/05/10 03:31:32;;;;;;;2.72;2.35;;;15.30;41.10;;;;;;5033551;28;20091;-71
2023/05/10 03:33:58;;;;;;;2.95;2.25;;;15.30;41.10;;;;;;5033937;28;20361;-73
2023/05/10 03:36:23;;;;;;;2.42;2.20;;;15.30;41.10;;;;;;5044733;28;20059;-72
2023/05/10 03:38:49;;;;;;;2.85;2.22;;;15.30;41.20;;;;;;5055116;28;20075;-72
2023/05/10 03:41:15;;;;;;;2.42;2.20;;;15.30;41.20;;;;;;5053188;28;20033;-72
2023/05/10 03:43:41;;;;;;;4.30;2.33;;;15.30;41.10;;;;;;5055015;28;20053;-73
2023/05/10 03:46:07;;;;;;;2.78;2.35;;;15.40;41.10;;;;;;5053529;28;20025;-72
2023/05/10 03:48:33;;;;;;;2.55;2.25;;;15.40;41.00;;;;;;5045111;28;20445;-72
2023/05/10 03:50:58;;;;;;;2.85;2.53;;;15.40;41.00;;;;;;5045495;28;20033;-73
2023/05/10 03:53:25;;;;;;;3.85;2.67;;;15.40;41.00;;;;;;5043808;28;20510;-72
2023/05/10 03:55:50;;;;;;;3.75;2.50;;;15.40;41.00;;;;;;5044573;28;20029;-72
2023/05/10 03:58:16;;;;;;;3.58;2.78;;;15.50;41.00;;;;;;5045295;28;20508;-72
2023/05/10 04:00:44;;;;;;;2.67;2.45;;;15.50;41.00;;;;;;5042287;28;20128;-72
2023/05/10 04:03:11;;;;;;;3.50;2.40;;;15.50;40.90;;;;;;5044219;28;20526;-72
2023/05/10 04:05:37;;;;;;;3.15;2.53;;;15.50;41.00;;;;;;5044314;28;20033;-72
2023/05/10 04:08:03;;;;;;;3.30;2.50;;;15.60;41.00;;;;;;5042127;28;20372;-72
2023/05/10 04:10:29;;;;;;;4.75;2.90;;;15.60;41.00;;;;;;5043253;28;20024;-72
2023/05/10 04:12:55;;;;;;;3.05;2.75;;;15.60;41.00;;;;;;5042512;28;20027;-72
2023/05/10 04:15:20;;;;;;;3.83;2.55;;;15.60;41.00;;;;;;5045095;28;20038;-73
2023/05/10 04:17:46;;;;;;;2.75;2.40;;;15.60;40.90;;;;;;5041470;28;20036;-74
2023/05/10 04:20:12;;;;;;;3.30;2.50;;;15.60;40.90;;;;;;5042826;28;20440;-73
2023/05/10 04:22:38;;;;;;;4.78;2.63;;;15.70;40.90;;;;;;5042377;28;20116;-70
2023/05/10 04:25:04;;;;;;;3.90;2.80;;;15.70;40.90;;;;;;5043897;28;20028;-71
2023/05/10 04:27:30;;;;;;;3.00;2.47;;;15.70;40.80;;;;;;5042056;28;20379;-72
2023/05/10 04:29:56;;;;;;;4.38;2.75;;;15.70;40.70;;;;;;5043646;28;20376;-71
2023/05/10 04:32:22;;;;;;;4.13;3.20;;;15.70;40.60;;;;;;5053360;28;20036;-71
2023/05/10 04:34:48;;;;;;;3.97;3.03;;;15.70;40.60;;;;;;5046080;28;20032;-71
2023/05/10 04:37:14;;;;;;;3.45;3.10;;;15.70;40.50;;;;;;5033423;28;20025;-72
2023/05/10 04:39:40;;;;;;;3.75;2.95;;;15.70;40.50;;;;;;5034204;28;20025;-72
2023/05/10 04:42:05;;;;;;;4.38;2.60;;;15.80;40.50;;;;;;5034175;28;20043;-74
2023/05/10 04:44:32;;;;;;;3.55;2.72;;;15.80;40.40;;;;;;5034447;28;20033;-73
2023/05/10 04:46:57;;;;;;;3.60;2.53;;;15.80;40.50;;;;;;5033959;28;20030;-72
2023/05/10 04:49:23;;;;;;;3.35;2.33;;;15.90;40.70;;;;;;5035919;28;20030;-72
2023/05/10 04:51:49;;;;;;;2.92;2.45;;;16.00;40.70;;;;;;5042496;28;20159;-72
2023/05/10 04:54:14;;;;;;;2.92;2.50;;;16.00;40.60;;;;;;5043786;28;20026;-72
2023/05/10 04:56:40;;;;;;;3.88;2.40;;;16.00;40.50;;;;;;5041043;28;20034;-72
2023/05/10 04:59:06;;;;;;;3.63;2.63;;;16.00;40.50;;;;;;5044340;28;20025;-72
2023/05/10 05:01:32;;;;;;;3.95;2.60;;;16.00;40.50;;;;;;5048429;28;20028;-71
2023/05/10 05:03:59;;;;;;;3.83;2.90;;;16.00;40.40;;;;;;5053430;28;20446;-71
2023/05/10 05:06:25;;;;;;;3.53;2.78;;;16.00;41.00;;;;;;5035136;28;20395;-72
2023/05/10 05:08:51;;;;;;;3.67;2.85;;;16.00;40.30;;;;;;5033454;28;20029;-71
2023/05/10 05:11:17;;;;;;;5.68;3.17;;;16.00;40.30;;;;;;5032196;28;20037;-72
2023/05/10 05:13:43;;;;;;;3.25;2.72;;;16.00;40.30;;;;;;5032428;28;20120;-72
2023/05/10 05:16:08;;;;;;;3.35;2.58;;;16.00;40.20;;;;;;5034193;28;20117;-76
2023/05/10 05:18:34;;;;;;;2.95;2.50;;;16.00;40.20;;;;;;5033851;28;20044;-74
2023/05/10 05:21:00;;;;;;;3.40;2.70;;;16.00;40.20;;;;;;5033626;28;20026;-75
2023/05/10 05:23:26;;;;;;;2.95;2.30;;;16.00;40.20;;;;;;5032504;28;20112;-75
2023/05/10 05:25:52;;;;;;;3.28;2.50;;;16.00;40.20;;;;;;5032487;28;20113;-73
2023/05/10 05:28:19;;;;;;;3.13;2.50;;;16.00;40.20;;;;;;5033839;28;20529;-74
2023/05/10 05:30:45;;;;;;;2.70;2.33;;;16.00;40.20;;;;;;5032064;28;20089;-72
2023/05/10 05:33:11;;;;;;;3.28;2.30;;;16.10;40.30;;;;;;5033173;28;20068;-70
2023/05/10 05:35:37;;;;;;;2.83;2.30;;;16.00;40.20;;;;;;5033676;28;20040;-74
2023/05/10 05:38:02;;;;;;;3.03;2.25;;;16.10;40.30;;;;;;5033502;28;20033;-72
2023/05/10 05:40:28;;;;;;;3.40;2.50;;;16.10;40.30;;;;;;5032987;28;20052;-71
2023/05/10 05:42:54;;;;;;;2.88;2.35;;;16.10;40.30;;;;;;5033697;28;20376;-73
2023/05/10 05:45:19;;;;;;;2.47;2.20;;;16.10;40.30;;;;;;5032101;28;20041;-73
2023/05/10 05:47:45;;;;;;;3.33;2.38;;;16.10;40.30;;;;;;5032263;28;20037;-72
2023/05/10 05:50:11;;;;;;;2.45;2.25;;;16.10;40.30;;;;;;5032206;28;20026;-71
2023/05/10 05:52:36;;;;;;;3.10;2.80;;;16.10;40.30;;;;;;5032012;28;20032;-70
2023/05/10 05:55:02;;;;;;;4.72;2.40;;;16.10;40.30;;;;;;5033067;28;20120;-70
2023/05/10 05:57:28;;;;;;;3.67;2.53;;;16.20;40.50;;;;;;5035110;28;20036;-71
2023/05/10 05:59:54;;;;;;;4.82;2.60;;;16.20;40.50;;;;;;5037799;28;20430;-71
2023/05/10 06:02:19;;;;;;;3.30;2.65;;;16.20;40.50;;;;;;5036283;28;20116;-71
2023/05/10 06:04:45;;;;;;;4.45;2.47;;;16.20;40.50;;;;;;5037457;28;20029;-70
2023/05/10 06:07:16;;;;;;;2.65;2.30;;;16.20;40.60;;;;;;5036820;28;20033;-69
2023/05/10 06:09:42;;;;;;;3.15;2.30;;;16.20;40.50;;;;;;5035479;28;20033;-69
2023/05/10 06:12:07;;;;;;;3.78;2.60;;;16.20;40.50;;;;;;5035582;28;20021;-69
2023/05/10 06:14:33;;;;;;;4.30;2.58;;;16.20;40.60;;;;;;5035613;28;20029;-70
2023/05/10 06:16:59;;;;;;;4.22;2.40;;;16.20;40.50;;;;;;5036744;28;20075;-69
2023/05/10 06:19:26;;;;;;;2.75;2.30;;;16.20;40.50;;;;;;5035800;28;20025;-70
2023/05/10 06:21:51;;;;;;;2.67;2.30;;;16.20;40.40;;;;;;5036741;28;20027;-70
2023/05/10 06:24:17;;;;;;;2.58;2.20;;;16.20;40.40;;;;;;5036119;28;20037;-69
2023/05/10 06:26:43;;;;;;;3.63;2.60;;;16.20;40.30;;;;;;5037026;28;20075;-69
2023/05/10 06:29:08;;;;;;;2.95;1.98;;;16.30;40.30;;;;;;5035514;28;20033;-69
2023/05/10 06:31:34;;;;;;;2.20;2.00;;;16.20;40.10;;;;;;5036913;28;20029;-70
2023/05/10 06:34:00;;;;;;;2.70;2.13;;;16.30;40.00;;;;;;5036479;28;20156;-70
2023/05/10 06:36:27;;;;;;;2.28;2.00;;;16.30;39.90;;;;;;5036482;28;20036;-70
2023/05/10 06:38:52;;;;;;;3.65;2.10;;;16.30;39.80;;;;;;5036483;28;20027;-69
2023/05/10 06:41:18;;;;;;;3.28;2.20;;;16.30;39.80;;;;;;5036708;28;20021;-69
2023/05/10 06:43:43;;;;;;;2.63;1.98;;;16.30;39.70;;;;;;5036889;28;20135;-69
2023/05/10 06:46:09;;;;;;;2.28;2.05;;;16.40;39.70;;;;;;5036454;28;20464;-70
2023/05/10 06:48:35;;;;;;;2.88;2.10;;;16.40;39.60;;;;;;5036406;28;20403;-69
2023/05/10 06:51:00;;;;;;;2.90;1.95;;;16.40;39.50;;;;;;5036305;28;20112;-69
2023/05/10 06:53:26;;;;;;;2.65;2.00;;;16.40;39.40;;;;;;5036429;28;20456;-69
2023/05/10 06:55:52;;;;;;;2.63;1.95;;;16.40;39.30;;;;;;5036441;28;20072;-69
2023/05/10 06:58:18;;;;;;;2.80;2.30;;;16.50;39.20;;;;;;5034997;28;20415;-69
2023/05/10 07:00:45;;;;;;;2.08;1.92;;;16.50;39.10;;;;;;5034864;28;20030;-68
2023/05/10 07:03:10;;;;;;;2.75;1.80;;;16.50;39.00;;;;;;5035946;28;20456;-70
2023/05/10 07:05:36;;;;;;;1.73;1.63;;;16.60;38.90;;;;;;5036580;28;20125;-69
2023/05/10 07:08:02;;;;;;;1.92;1.70;;;16.60;38.80;;;;;;5035093;28;20456;-69
2023/05/10 07:10:28;;;;;;;2.03;1.85;;;16.60;38.80;;;;;;5034943;28;20026;-68
2023/05/10 07:12:53;;;;;;;2.00;1.63;;;16.60;38.70;;;;;;5034831;28;20416;-70
2023/05/10 07:15:19;;;;;;;2.25;1.70;;;16.60;38.50;;;;;;5035640;28;20044;-70
2023/05/10 07:17:45;;;;;;;2.00;1.70;;;16.60;38.50;;;;;;5036046;28;20061;-70
2023/05/10 07:20:11;;;;;;;3.85;1.90;;;16.70;38.40;;;;;;5035829;28;20080;-70
2023/05/10 07:22:37;;;;;;;1.80;1.70;;;16.70;38.30;;;;;;5035898;28;20116;-70
2023/05/10 07:25:03;;;;;;;1.70;1.58;;;16.70;38.30;;;;;;5034728;28;20171;-69
2023/05/10 07:27:28;;;;;;;1.65;1.50;;;16.70;38.30;;;;;;5035953;28;20116;-69
2023/05/10 07:29:54;;;;;;;1.98;1.70;;;16.80;38.20;;;;;;5034470;28;20487;-68
2023/05/10 07:32:21;;;;;;;2.03;1.45;;;16.80;38.10;;;;;;5035707;28;20083;-68
2023/05/10 07:34:46;;;;;;;1.85;1.67;;;16.80;37.90;;;;;;5035388;28;20026;-70
2023/05/10 07:37:12;;;;;;;2.55;1.50;;;16.90;37.80;;;;;;5035516;28;20039;-70
2023/05/10 07:39:38;;;;;;;2.50;1.40;;;17.00;37.80;;;;;;5035789;28;20356;-69
2023/05/10 07:42:03;;;;;;;1.75;1.58;;;17.00;37.70;;;;;;5035828;28;20025;-69
2023/05/10 07:44:29;;;;;;;1.58;1.40;;;17.00;37.60;;;;;;5034063;28;20041;-69
2023/05/10 07:46:55;;;;;;;1.63;1.52;;;17.10;37.50;;;;;;5035556;28;20022;-69
2023/05/10 07:49:21;;;;;;;2.08;1.50;;;17.10;37.40;;;;;;5033766;28;20468;-70
2023/05/10 07:51:46;;;;;;;1.70;1.60;;;17.10;37.40;;;;;;5035078;28;20030;-69
2023/05/10 07:54:13;;;;;;;1.60;1.50;;;17.10;37.30;;;;;;5034934;28;20029;-68
2023/05/10 07:56:40;;;;;;;1.83;1.40;;;17.20;37.30;;;;;;5035101;28;20468;-70
2023/05/10 07:59:06;;;;;;;2.55;1.50;;;17.30;37.20;;;;;;5035411;28;20056;-69
2023/05/10 08:01:33;;;;;;;1.45;1.35;;;17.30;37.20;;;;;;5035202;28;20379;-70
2023/05/10 08:03:59;;;;;;;2.75;1.50;;;17.40;37.00;;;;;;5034963;28;20044;-70
2023/05/10 08:06:29;;;;;;;2.53;1.33;;;17.50;37.00;;;;;;5035351;28;20083;-69
2023/05/10 08:08:55;;;;;;;1.80;1.70;;;17.50;36.80;;;;;;5035406;28;20022;-68
2023/05/10 08:11:21;;;;;;;1.60;1.50;;;17.60;36.80;;;;;;5034009;28;20033;-68
2023/05/10 08:13:49;;;;;;;1.92;1.42;;;17.60;36.60;;;;;;5034879;28;20441;-70
2023/05/10 08:16:15;;;;;;;2.17;1.50;;;17.70;36.60;;;;;;5034950;28;20030;-69
2023/05/10 08:18:41;;;;;;;2.00;1.60;;;17.80;36.50;;;;;;5033155;28;20075;-69
2023/05/10 08:21:07;;;;;;;1.50;1.40;;;17.80;36.50;;;;;;5032299;28;20025;-70
2023/05/10 08:23:32;;;;;;;1.42;1.30;;;17.90;36.40;;;;;;5034955;28;20036;-69
2023/05/10 08:25:59;;;;;;;2.28;1.60;;;17.90;36.30;;;;;;5033428;28;20118;-69
2023/05/10 08:28:24;;;;;;;1.63;1.50;;;18.00;36.10;;;;;;5034708;28;20041;-69
2023/05/10 08:30:50;;;;;;;2.53;1.58;;;18.10;36.10;;;;;;5034100;28;20133;-69
2023/05/10 08:33:17;;;;;;;1.65;1.55;;;18.10;35.90;;;;;;5034287;28;20033;-69
2023/05/10 08:35:43;;;;;;;3.15;1.40;;;18.10;35.80;;;;;;5033302;28;20549;-69
2023/05/10 08:38:09;;;;;;;1.42;1.30;;;18.10;35.70;;;;;;5033407;28;20057;-69
2023/05/10 08:40:36;;;;;;;1.40;1.30;;;18.20;35.60;;;;;;5034317;28;20494;-69
2023/05/10 08:43:05;;;;;;;1.40;1.30;;;18.20;35.50;;;;;;5034298;28;20064;-69
2023/05/10 08:45:36;;;;;;;1.77;1.38;;;18.30;35.40;;;;;;5033275;28;20033;-69
2023/05/10 08:48:04;;;;;;;1.33;1.23;;;18.30;35.40;;;;;;5034282;28;20029;-69
2023/05/10 08:50:31;;;;;;;2.10;1.20;;;18.30;35.20;;;;;;5034683;28;20112;-70
2023/05/10 08:53:00;;;;;;;1.42;1.33;;;18.30;35.30;;;;;;5032888;28;20460;-68
2023/05/10 08:55:26;;;;;;;1.35;1.25;;;18.30;35.20;;;;;;5033998;28;20033;-69
2023/05/10 08:57:53;;;;;;;1.38;1.27;;;18.30;35.00;;;;;;5034153;28;20104;-69
2023/05/10 09:00:19;;;;;;;1.30;1.20;;;18.40;35.10;;;;;;5033867;28;20522;-69
2023/05/10 09:02:48;;;;;;;1.00;1.00;;;18.40;35.00;;;;;;5034060;28;20078;-70
2023/05/10 09:05:15;;;;;;;1.70;1.30;;;18.40;34.90;;;;;;5034161;28;20036;-70
2023/05/10 09:07:41;;;;;;;2.35;1.40;;;18.50;34.80;;;;;;5033845;28;20047;-69
2023/05/10 09:10:08;;;;;;;1.48;1.30;;;18.50;34.70;;;;;;5033663;28;20017;-68
2023/05/10 09:12:35;;;;;;;1.38;1.27;;;18.60;34.60;;;;;;5033809;28;20022;-69
2023/05/10 09:15:01;;;;;;;1.45;1.33;;;18.70;34.60;;;;;;5032056;28;20034;-69
2023/05/10 09:17:28;;;;;;;1.30;1.20;;;18.80;35.10;;;;;;5032751;28;20427;-69
2023/05/10 09:20:02;;;;;;;1.45;1.35;;;18.90;34.40;;;;;;5034091;28;20021;-68
2023/05/10 09:22:28;;;;;;;1.30;1.20;;;19.00;34.20;;;;;;5033577;28;20037;-69
2023/05/10 09:25:08;;;;;;;3.13;1.38;;;19.10;34.20;;;;;;5033501;28;20033;-69
2023/05/10 09:27:34;;;;;;;1.63;1.40;;;19.10;33.90;;;;;;5033733;28;20030;-69
2023/05/10 09:30:00;;;;;;;1.20;1.15;;;19.20;34.00;;;;;;5032405;28;20064;-69
2023/05/10 09:32:46;;;;;;;1.17;1.02;;;19.20;33.80;;;;;;5032135;28;20033;-69
2023/05/10 09:35:20;;;;;;;1.30;1.20;;;19.30;33.60;;;;;;5033387;28;20036;-69
2023/05/10 09:37:50;;;;;;;1.30;1.20;;;19.30;33.60;;;;;;5033637;28;20030;-69
2023/05/10 09:40:17;;;;;;;1.40;1.30;;;19.40;33.60;;;;;;5032244;28;20036;-70
2023/05/10 09:42:54;;;;;;;1.10;1.08;;;19.40;33.50;;;;;;5032177;28;20036;-69
2023/05/10 09:45:21;;;;;;;2.20;1.00;;;19.50;33.40;;;;;;5032402;28;20497;-69
2023/05/10 09:47:47;;;;;;;2.08;1.20;;;19.50;33.30;;;;;;5033364;28;20525;-70
2023/05/10 09:50:13;;;;;;;1.20;1.10;;;19.60;33.20;;;;;;5033253;28;20053;-68
2023/05/10 09:53:14;;;;;;;1.33;1.17;;;19.60;33.20;;;;;;5033285;28;20036;-70
2023/05/10 09:55:45;;;;;;;1.30;1.20;;;19.60;31.90;;;;;;5032214;28;20049;-70
2023/05/10 09:58:14;;;;;;;1.75;1.50;;;19.70;33.00;;;;;;5032124;28;20030;-69
2023/05/10 10:00:42;;;;;;;1.52;1.42;;;19.70;32.90;;;;;;5031999;28;20128;-70
2023/05/10 10:03:16;;;;;;;1.95;1.30;;;19.70;32.70;;;;;;5032144;28;20414;-69
2023/05/10 10:05:43;;;;;;;2.67;1.30;;;19.70;32.70;;;;;;5033543;28;20037;-69
2023/05/10 10:08:09;;;;;;;1.27;1.17;;;19.80;32.70;;;;;;5032330;28;20084;-70
2023/05/10 10:10:35;;;;;;;2.40;1.55;;;19.80;32.40;;;;;;5033520;28;20108;-70
2023/05/10 10:13:02;;;;;;;1.40;1.30;;;19.80;32.30;;;;;;5033030;28;20105;-68
2023/05/10 10:15:28;;;;;;;1.55;1.45;;;19.80;32.30;;;;;;5031478;28;20038;-69
2023/05/10 10:17:54;;;;;;;1.35;1.25;;;19.90;32.50;;;;;;5031659;28;20117;-69
2023/05/10 10:20:21;;;;;;;1.48;1.38;;;19.90;32.40;;;;;;5032970;28;20117;-69
2023/05/10 10:22:48;;;;;;;2.95;1.30;;;20.00;32.40;;;;;;5033211;28;20029;-69
2023/05/10 10:25:15;;;;;;;3.28;1.50;;;20.00;32.40;;;;;;5032960;28;20033;-70
2023/05/10 10:27:53;;;;;;;1.23;1.13;;;20.10;32.40;;;;;;5033025;28;20072;-70
2023/05/10 10:30:46;;;;;;;1.45;1.30;;;20.10;32.00;;;;;;5032764;28;20118;-69
2023/05/10 10:33:51;;;;;;;1.33;1.20;;;20.20;31.60;;;;;;5032841;28;20026;-68
2023/05/10 10:36:16;;;;;;;2.37;1.50;;;20.20;31.80;;;;;;5032491;28;20480;-69
2023/05/10 10:38:48;;;;;;;2.65;1.50;;;20.20;32.00;;;;;;5033074;28;20025;-70
2023/05/10 10:41:33;;;;;;;1.45;1.20;;;20.30;32.00;;;;;;5033206;28;20030;-68
2023/05/10 10:44:24;;;;;;;1.40;1.30;;;20.30;31.70;;;;;;5034415;28;20446;-70
2023/05/10 10:47:11;;;;;;;1.30;1.20;;;20.30;31.60;;;;;;5036220;28;20112;-70
2023/05/10 10:49:43;;;;;;;1.42;1.30;;;20.30;31.50;;;;;;5036447;28;20022;-70
2023/05/10 10:52:21;;;;;;;1.63;1.40;;;20.40;31.80;;;;;;5036628;28;20061;-70
2023/05/10 10:55:01;;;;;;;1.15;1.05;;;20.40;31.40;;;;;;5036148;28;20116;-69
2023/05/10 10:57:29;;;;;;;1.40;1.30;;;20.40;31.50;;;;;;5036507;28;20491;-69
2023/05/10 11:00:17;;;;;;;1.98;1.35;;;20.30;31.40;;;;;;5036328;28;20028;-69
2023/05/10 11:02:54;;;;;;;1.25;1.15;;;20.40;31.10;;;;;;5036270;28;20104;-70
2023/05/10 11:05:25;;;;;;;1.02;1.02;;;20.40;31.40;;;;;;5034653;28;20037;-68
2023/05/10 11:08:06;;;;;;;1.48;1.20;;;20.40;31.30;;;;;;5036569;28;20108;-69
2023/05/10 11:10:32;;;;;;;1.90;1.10;;;20.40;31.10;;;;;;5036336;28;20345;-70
2023/05/10 11:13:04;;;;;;;1.73;1.23;;;20.40;31.30;;;;;;5036409;28;20427;-70
2023/05/10 11:15:33;;;;;;;1.30;1.20;;;20.40;31.30;;;;;;5035863;28;20079;-68
2023/05/10 11:18:00;;;;;;;1.23;1.17;;;20.40;31.20;;;;;;5035808;28;20037;-71
2023/05/10 11:20:38;;;;;;;1.45;1.35;;;20.40;31.10;;;;;;5035748;28;20025;-70
2023/05/10 11:23:15;;;;;;;3.28;1.10;;;20.40;31.10;;;;;;5034724;28;20042;-70
2023/05/10 11:25:42;;;;;;;1.10;1.00;;;20.40;31.00;;;;;;5035970;28;20402;-70
2023/05/10 11:28:09;;;;;;;2.05;1.13;;;20.40;31.10;;;;;;5035734;28;20052;-71
2023/05/10 11:30:35;;;;;;;2.70;1.30;;;20.40;31.00;;;;;;5034313;28;20093;-69
2023/05/10 11:33:01;;;;;;;1.63;1.20;;;20.40;31.00;;;;;;5035638;28;20026;-69
2023/05/10 11:35:27;;;;;;;1.10;1.10;;;20.40;31.00;;;;;;5035492;28;20030;-69
2023/05/10 11:37:53;;;;;;;2.20;1.30;;;20.40;31.00;;;;;;5034457;28;20391;-69
2023/05/10 11:40:21;;;;;;;1.35;1.25;;;20.30;30.80;;;;;;5035516;28;20033;-70
2023/05/10 11:42:46;;;;;;;1.20;1.10;;;20.20;30.80;;;;;;5035578;28;20368;-70
2023/05/10 11:45:12;;;;;;;1.33;1.23;;;20.20;31.00;;;;;;5035311;28;20025;-69
2023/05/10 11:47:39;;;;;;;1.45;1.33;;;20.10;30.80;;;;;;5035729;28;20406;-70
2023/05/10 11:50:05;;;;;;;1.67;1.20;;;20.00;30.70;;;;;;5035334;28;20104;-70
2023/05/10 11:52:37;;;;;;;1.23;1.13;;;20.00;30.80;;;;;;5035234;28;20030;-69
2023/05/10 11:55:02;;;;;;;1.20;1.13;;;20.00;30.70;;;;;;5034889;28;20079;-69
2023/05/10 11:57:28;;;;;;;2.10;1.40;;;19.90;30.70;;;;;;5034892;28;20100;-70
2023/05/10 11:59:56;;;;;;;1.23;1.13;;;19.90;30.70;;;;;;5033801;28;20084;-69
2023/05/10 12:02:21;;;;;;;1.30;1.20;;;19.90;30.60;;;;;;5034972;28;20097;-69
2023/05/10 12:04:47;;;;;;;1.40;1.30;;;19.90;30.60;;;;;;5033761;28;20060;-69
2023/05/10 12:07:13;;;;;;;1.30;1.20;;;19.90;30.60;;;;;;5035009;28;20104;-70
2023/05/10 12:10:02;;;;;;;2.10;1.52;;;19.90;30.60;;;;;;5034943;28;20464;-69
2023/05/10 12:12:34;;;;;;;1.30;1.20;;;20.00;30.70;;;;;;5035101;28;20456;-68
2023/05/10 12:15:03;;;;;;;1.45;1.35;;;20.00;30.70;;;;;;5035136;28;20033;-68
2023/05/10 12:17:29;;;;;;;1.30;1.20;;;20.00;30.60;;;;;;5034720;28;20038;-69
2023/05/10 12:20:12;;;;;;;1.23;1.13;;;20.10;30.70;;;;;;5034946;28;20025;-69
2023/05/10 12:22:38;;;;;;;1.20;1.10;;;20.10;30.60;;;;;;5034676;28;20483;-69
2023/05/10 12:25:03;;;;;;;1.35;1.20;;;20.10;30.50;;;;;;5034760;28;20029;-68
2023/05/10 12:27:32;;;;;;;1.17;1.10;;;20.20;30.40;;;;;;5034686;28;20041;-69
2023/05/10 12:29:59;;;;;;;2.05;1.30;;;20.30;30.30;;;;;;5034719;28;20049;-70
2023/05/10 12:32:41;;;;;;;1.20;1.10;;;20.40;30.30;;;;;;5034428;28;20056;-68
2023/05/10 12:35:08;;;;;;;1.20;1.10;;;20.50;30.00;;;;;;5034612;28;20092;-69
2023/05/10 12:37:35;;;;;;;1.38;1.00;;;20.60;30.20;;;;;;5034554;28;20104;-68
2023/05/10 12:40:02;;;;;;;1.77;1.13;;;20.60;30.10;;;;;;5034521;28;20029;-69
2023/05/10 12:42:27;;;;;;;3.20;1.27;;;20.70;30.20;;;;;;5034488;28;20459;-69
2023/05/10 12:44:57;;;;;;;1.33;1.23;;;20.80;30.20;;;;;;5034341;28;20025;-70
2023/05/10 12:47:22;;;;;;;1.63;1.40;;;20.90;30.20;;;;;;5034080;28;20025;-68
2023/05/10 12:49:48;;;;;;;1.30;1.20;;;21.00;30.00;;;;;;5033851;28;20040;-69
2023/05/10 12:52:13;;;;;;;1.38;1.27;;;21.10;30.00;;;;;;5034101;28;20034;-68
2023/05/10 12:54:39;;;;;;;1.30;1.15;;;21.10;30.00;;;;;;5034268;28;20059;-69